sensor_id;sensor_type;location;lat;lon;timestamp;P1;durP1;ratioP1;P2;durP2;ratioP2
19897;SDS011;10111;50.814;4.572;2023-08-24T00:00:20;4.57;;;4.17;;
19897;SDS011;10111;50.814;4.572;2023-08-24T00:02:46;6.30;;;3.97;;
19897;SDS011;10111;50.814;4.572;2023-08-24T00:05:12;4.87;;;3.87;;
19897;SDS011;10111;50.814;4.572;2023-08-24T00:07:38;9.20;;;5.00;;
19897;SDS011;10111;50.814;4.572;2023-08-24T00:10:04;5.80;;;5.00;;
19897;SDS011;10111;50.814;4.572;2023-08-24T00:12:30;4.77;;;4.03;;
19897;SDS011;10111;50.814;4.572;2023-08-24T00:14:58;10.07;;;4.67;;
19897;SDS011;10111;50.814;4.572;2023-08-24T00:17:23;6.97;;;4.90;;
19897;SDS011;10111;50.814;4.572;2023-08-24T00:19:49;8.60;;;4.77;;
19897;SDS011;10111;50.814;4.572;2023-08-24T00:22:15;8.17;;;4.43;;
19897;SDS011;10111;50.814;4.572;2023-08-24T00:24:41;6.53;;;4.17;;
19897;SDS011;10111;50.814;4.572;2023-08-24T00:27:06;5.87;;;4.60;;
19897;SDS011;10111;50.814;4.572;2023-08-24T00:29:32;6.10;;;5.03;;
19897;SDS011;10111;50.814;4.572;2023-08-24T00:31:57;7.30;;;4.33;;
19897;SDS011;10111;50.814;4.572;2023-08-24T00:34:23;7.10;;;4.50;;
19897;SDS011;10111;50.814;4.572;2023-08-24T00:36:49;4.90;;;4.50;;
19897;SDS011;10111;50.814;4.572;2023-08-24T00:39:14;7.40;;;4.67;;
19897;SDS011;10111;50.814;4.572;2023-08-24T00:41:41;5.60;;;4.70;;
19897;SDS011;10111;50.814;4.572;2023-08-24T00:44:07;6.77;;;4.70;;
19897;SDS011;10111;50.814;4.572;2023-08-24T00:46:33;8.13;;;5.20;;
19897;SDS011;10111;50.814;4.572;2023-08-24T00:48:59;7.13;;;4.73;;
19897;SDS011;10111;50.814;4.572;2023-08-24T00:51:25;8.47;;;5.23;;
19897;SDS011;10111;50.814;4.572;2023-08-24T00:53:51;7.53;;;5.17;;
19897;SDS011;10111;50.814;4.572;2023-08-24T00:56:17;6.97;;;4.80;;
19897;SDS011;10111;50.814;4.572;2023-08-24T00:58:49;7.43;;;4.90;;
19897;SDS011;10111;50.814;4.572;2023-08-24T01:01:15;6.83;;;5.30;;
19897;SDS011;10111;50.814;4.572;2023-08-24T01:03:42;8.20;;;5.13;;
19897;SDS011;10111;50.814;4.572;2023-08-24T01:06:08;5.73;;;4.47;;
19897;SDS011;10111;50.814;4.572;2023-08-24T01:08:34;9.13;;;5.17;;
19897;SDS011;10111;50.814;4.572;2023-08-24T01:11:12;8.00;;;5.27;;
19897;SDS011;10111;50.814;4.572;2023-08-24T01:13:59;8.17;;;5.77;;
19897;SDS011;10111;50.814;4.572;2023-08-24T01:16:39;6.57;;;5.87;;
19897;SDS011;10111;50.814;4.572;2023-08-24T01:19:10;8.77;;;5.20;;
19897;SDS011;10111;50.814;4.572;2023-08-24T01:21:56;7.13;;;5.70;;
19897;SDS011;10111;50.814;4.572;2023-08-24T01:24:31;5.50;;;4.97;;
19897;SDS011;10111;50.814;4.572;2023-08-24T01:27:10;8.67;;;4.70;;
19897;SDS011;10111;50.814;4.572;2023-08-24T01:29:38;7.83;;;5.47;;
19897;SDS011;10111;50.814;4.572;2023-08-24T01:32:09;5.53;;;5.03;;
19897;SDS011;10111;50.814;4.572;2023-08-24T01:34:38;7.20;;;5.27;;
19897;SDS011;10111;50.814;4.572;2023-08-24T01:37:07;7.23;;;5.53;;
19897;SDS011;10111;50.814;4.572;2023-08-24T01:39:40;8.03;;;6.20;;
19897;SDS011;10111;50.814;4.572;2023-08-24T01:42:10;7.17;;;5.33;;
19897;SDS011;10111;50.814;4.572;2023-08-24T01:44:42;5.73;;;5.07;;
19897;SDS011;10111;50.814;4.572;2023-08-24T01:47:12;8.77;;;5.80;;
19897;SDS011;10111;50.814;4.572;2023-08-24T01:49:39;8.37;;;6.37;;
19897;SDS011;10111;50.814;4.572;2023-08-24T01:52:06;8.90;;;6.27;;
19897;SDS011;10111;50.814;4.572;2023-08-24T01:54:34;9.37;;;6.23;;
19897;SDS011;10111;50.814;4.572;2023-08-24T01:57:00;6.90;;;5.97;;
19897;SDS011;10111;50.814;4.572;2023-08-24T01:59:26;10.40;;;6.27;;
19897;SDS011;10111;50.814;4.572;2023-08-24T02:01:51;8.40;;;6.27;;
19897;SDS011;10111;50.814;4.572;2023-08-24T02:04:17;8.57;;;7.67;;
19897;SDS011;10111;50.814;4.572;2023-08-24T02:06:42;9.70;;;7.17;;
19897;SDS011;10111;50.814;4.572;2023-08-24T02:09:08;7.87;;;6.10;;
19897;SDS011;10111;50.814;4.572;2023-08-24T02:11:34;8.83;;;7.47;;
19897;SDS011;10111;50.814;4.572;2023-08-24T02:13:59;7.77;;;6.47;;
19897;SDS011;10111;50.814;4.572;2023-08-24T02:16:25;8.53;;;7.33;;
19897;SDS011;10111;50.814;4.572;2023-08-24T02:18:50;10.27;;;6.30;;
19897;SDS011;10111;50.814;4.572;2023-08-24T02:21:16;9.70;;;7.27;;
19897;SDS011;10111;50.814;4.572;2023-08-24T02:23:42;7.30;;;6.53;;
19897;SDS011;10111;50.814;4.572;2023-08-24T02:26:07;9.93;;;7.77;;
19897;SDS011;10111;50.814;4.572;2023-08-24T02:28:34;7.97;;;7.17;;
19897;SDS011;10111;50.814;4.572;2023-08-24T02:31:01;11.20;;;7.33;;
19897;SDS011;10111;50.814;4.572;2023-08-24T02:33:28;6.57;;;5.60;;
19897;SDS011;10111;50.814;4.572;2023-08-24T02:35:54;9.50;;;6.50;;
19897;SDS011;10111;50.814;4.572;2023-08-24T02:38:20;9.77;;;6.50;;
19897;SDS011;10111;50.814;4.572;2023-08-24T02:40:45;10.60;;;7.07;;
19897;SDS011;10111;50.814;4.572;2023-08-24T02:43:11;11.07;;;7.23;;
19897;SDS011;10111;50.814;4.572;2023-08-24T02:45:38;8.37;;;6.40;;
19897;SDS011;10111;50.814;4.572;2023-08-24T02:48:03;11.13;;;6.63;;
19897;SDS011;10111;50.814;4.572;2023-08-24T02:50:29;11.13;;;6.27;;
19897;SDS011;10111;50.814;4.572;2023-08-24T02:52:55;8.03;;;7.20;;
19897;SDS011;10111;50.814;4.572;2023-08-24T02:55:23;9.27;;;6.93;;
19897;SDS011;10111;50.814;4.572;2023-08-24T02:57:49;7.63;;;6.40;;
19897;SDS011;10111;50.814;4.572;2023-08-24T03:00:14;9.37;;;6.60;;
19897;SDS011;10111;50.814;4.572;2023-08-24T03:02:42;8.30;;;7.50;;
19897;SDS011;10111;50.814;4.572;2023-08-24T03:05:07;10.87;;;7.37;;
19897;SDS011;10111;50.814;4.572;2023-08-24T03:07:33;12.40;;;7.17;;
19897;SDS011;10111;50.814;4.572;2023-08-24T03:09:59;10.47;;;7.73;;
19897;SDS011;10111;50.814;4.572;2023-08-24T03:12:24;9.33;;;7.30;;
19897;SDS011;10111;50.814;4.572;2023-08-24T03:14:56;9.63;;;8.00;;
19897;SDS011;10111;50.814;4.572;2023-08-24T03:17:22;8.50;;;6.93;;
19897;SDS011;10111;50.814;4.572;2023-08-24T03:19:48;7.57;;;6.77;;
19897;SDS011;10111;50.814;4.572;2023-08-24T03:22:13;7.73;;;6.50;;
19897;SDS011;10111;50.814;4.572;2023-08-24T03:24:39;9.63;;;6.43;;
19897;SDS011;10111;50.814;4.572;2023-08-24T03:27:05;10.10;;;7.20;;
19897;SDS011;10111;50.814;4.572;2023-08-24T03:29:30;9.43;;;6.03;;
19897;SDS011;10111;50.814;4.572;2023-08-24T03:31:56;8.30;;;6.73;;
19897;SDS011;10111;50.814;4.572;2023-08-24T03:34:22;12.07;;;7.77;;
19897;SDS011;10111;50.814;4.572;2023-08-24T03:36:48;8.83;;;7.10;;
19897;SDS011;10111;50.814;4.572;2023-08-24T03:39:13;8.57;;;6.53;;
19897;SDS011;10111;50.814;4.572;2023-08-24T03:41:42;10.87;;;6.63;;
19897;SDS011;10111;50.814;4.572;2023-08-24T03:44:08;9.67;;;6.83;;
19897;SDS011;10111;50.814;4.572;2023-08-24T03:46:33;11.07;;;6.93;;
19897;SDS011;10111;50.814;4.572;2023-08-24T03:48:59;8.97;;;5.87;;
19897;SDS011;10111;50.814;4.572;2023-08-24T03:51:25;8.93;;;6.87;;
19897;SDS011;10111;50.814;4.572;2023-08-24T03:53:50;8.50;;;6.20;;
19897;SDS011;10111;50.814;4.572;2023-08-24T03:56:16;9.93;;;7.00;;
19897;SDS011;10111;50.814;4.572;2023-08-24T03:58:41;7.60;;;6.70;;
19897;SDS011;10111;50.814;4.572;2023-08-24T04:01:11;8.97;;;6.83;;
19897;SDS011;10111;50.814;4.572;2023-08-24T04:03:36;7.90;;;6.57;;
19897;SDS011;10111;50.814;4.572;2023-08-24T04:06:02;9.00;;;6.70;;
19897;SDS011;10111;50.814;4.572;2023-08-24T04:08:28;7.83;;;6.70;;
19897;SDS011;10111;50.814;4.572;2023-08-24T04:10:53;6.73;;;6.13;;
19897;SDS011;10111;50.814;4.572;2023-08-24T04:13:19;7.27;;;6.13;;
19897;SDS011;10111;50.814;4.572;2023-08-24T04:15:45;8.50;;;6.47;;
19897;SDS011;10111;50.814;4.572;2023-08-24T04:18:11;7.63;;;6.60;;
19897;SDS011;10111;50.814;4.572;2023-08-24T04:20:36;10.70;;;6.23;;
19897;SDS011;10111;50.814;4.572;2023-08-24T04:23:02;8.57;;;6.77;;
19897;SDS011;10111;50.814;4.572;2023-08-24T04:25:28;10.07;;;6.30;;
19897;SDS011;10111;50.814;4.572;2023-08-24T04:27:54;8.07;;;6.03;;
19897;SDS011;10111;50.814;4.572;2023-08-24T04:30:20;9.03;;;6.80;;
19897;SDS011;10111;50.814;4.572;2023-08-24T04:32:46;12.40;;;7.37;;
19897;SDS011;10111;50.814;4.572;2023-08-24T04:35:12;8.23;;;6.77;;
19897;SDS011;10111;50.814;4.572;2023-08-24T04:37:38;12.27;;;7.47;;
19897;SDS011;10111;50.814;4.572;2023-08-24T04:40:04;11.23;;;7.07;;
19897;SDS011;10111;50.814;4.572;2023-08-24T04:42:32;8.40;;;6.27;;
19897;SDS011;10111;50.814;4.572;2023-08-24T04:44:58;11.83;;;6.00;;
19897;SDS011;10111;50.814;4.572;2023-08-24T04:47:24;54.67;;;12.17;;
19897;SDS011;10111;50.814;4.572;2023-08-24T04:49:49;21.97;;;7.73;;
19897;SDS011;10111;50.814;4.572;2023-08-24T04:52:15;22.23;;;7.63;;
19897;SDS011;10111;50.814;4.572;2023-08-24T04:54:40;7.73;;;6.33;;
19897;SDS011;10111;50.814;4.572;2023-08-24T04:57:06;9.50;;;6.50;;
19897;SDS011;10111;50.814;4.572;2023-08-24T04:59:32;10.27;;;7.20;;
19897;SDS011;10111;50.814;4.572;2023-08-24T05:01:57;8.57;;;6.77;;
19897;SDS011;10111;50.814;4.572;2023-08-24T05:04:24;10.30;;;7.53;;
19897;SDS011;10111;50.814;4.572;2023-08-24T05:06:49;9.83;;;5.80;;
19897;SDS011;10111;50.814;4.572;2023-08-24T05:09:15;8.27;;;6.53;;
19897;SDS011;10111;50.814;4.572;2023-08-24T05:11:40;11.70;;;6.73;;
19897;SDS011;10111;50.814;4.572;2023-08-24T05:14:06;8.60;;;7.40;;
19897;SDS011;10111;50.814;4.572;2023-08-24T05:16:32;10.63;;;7.87;;
19897;SDS011;10111;50.814;4.572;2023-08-24T05:18:57;7.90;;;6.90;;
19897;SDS011;10111;50.814;4.572;2023-08-24T05:21:23;7.43;;;6.67;;
19897;SDS011;10111;50.814;4.572;2023-08-24T05:23:49;8.40;;;7.47;;
19897;SDS011;10111;50.814;4.572;2023-08-24T05:26:14;11.07;;;7.20;;
19897;SDS011;10111;50.814;4.572;2023-08-24T05:28:47;9.23;;;6.93;;
19897;SDS011;10111;50.814;4.572;2023-08-24T05:31:13;11.57;;;7.30;;
19897;SDS011;10111;50.814;4.572;2023-08-24T05:33:38;9.53;;;7.90;;
19897;SDS011;10111;50.814;4.572;2023-08-24T05:36:04;8.73;;;7.73;;
19897;SDS011;10111;50.814;4.572;2023-08-24T05:38:30;10.33;;;7.17;;
19897;SDS011;10111;50.814;4.572;2023-08-24T05:40:55;10.30;;;8.67;;
19897;SDS011;10111;50.814;4.572;2023-08-24T05:43:21;11.77;;;7.47;;
19897;SDS011;10111;50.814;4.572;2023-08-24T05:45:47;8.63;;;7.30;;
19897;SDS011;10111;50.814;4.572;2023-08-24T05:48:13;23.57;;;9.93;;
19897;SDS011;10111;50.814;4.572;2023-08-24T05:50:45;7.47;;;6.73;;
19897;SDS011;10111;50.814;4.572;2023-08-24T05:53:11;10.97;;;8.27;;
19897;SDS011;10111;50.814;4.572;2023-08-24T05:55:38;13.03;;;8.37;;
19897;SDS011;10111;50.814;4.572;2023-08-24T05:58:03;14.43;;;8.53;;
19897;SDS011;10111;50.814;4.572;2023-08-24T06:00:29;10.13;;;7.67;;
19897;SDS011;10111;50.814;4.572;2023-08-24T06:02:55;10.07;;;6.97;;
19897;SDS011;10111;50.814;4.572;2023-08-24T06:05:21;9.67;;;7.23;;
19897;SDS011;10111;50.814;4.572;2023-08-24T06:07:48;10.97;;;8.03;;
19897;SDS011;10111;50.814;4.572;2023-08-24T06:10:13;9.27;;;7.70;;
19897;SDS011;10111;50.814;4.572;2023-08-24T06:12:39;12.37;;;8.10;;
19897;SDS011;10111;50.814;4.572;2023-08-24T06:15:05;8.50;;;7.47;;
19897;SDS011;10111;50.814;4.572;2023-08-24T06:17:32;7.17;;;6.10;;
19897;SDS011;10111;50.814;4.572;2023-08-24T06:20:00;8.80;;;5.93;;
19897;SDS011;10111;50.814;4.572;2023-08-24T06:22:28;12.37;;;6.40;;
19897;SDS011;10111;50.814;4.572;2023-08-24T06:24:54;6.90;;;6.20;;
19897;SDS011;10111;50.814;4.572;2023-08-24T06:27:24;9.27;;;6.43;;
19897;SDS011;10111;50.814;4.572;2023-08-24T06:29:50;8.03;;;6.13;;
19897;SDS011;10111;50.814;4.572;2023-08-24T06:32:16;7.60;;;5.90;;
19897;SDS011;10111;50.814;4.572;2023-08-24T06:34:41;9.70;;;6.00;;
19897;SDS011;10111;50.814;4.572;2023-08-24T06:37:07;7.57;;;5.53;;
19897;SDS011;10111;50.814;4.572;2023-08-24T06:39:32;5.87;;;5.23;;
19897;SDS011;10111;50.814;4.572;2023-08-24T06:41:58;6.63;;;4.50;;
19897;SDS011;10111;50.814;4.572;2023-08-24T06:44:27;7.63;;;4.90;;
19897;SDS011;10111;50.814;4.572;2023-08-24T06:46:53;4.20;;;3.80;;
19897;SDS011;10111;50.814;4.572;2023-08-24T06:49:19;6.30;;;4.47;;
19897;SDS011;10111;50.814;4.572;2023-08-24T06:51:45;5.93;;;4.23;;
19897;SDS011;10111;50.814;4.572;2023-08-24T06:54:10;8.17;;;3.93;;
19897;SDS011;10111;50.814;4.572;2023-08-24T06:56:36;6.83;;;4.27;;
19897;SDS011;10111;50.814;4.572;2023-08-24T06:59:02;4.30;;;3.93;;
19897;SDS011;10111;50.814;4.572;2023-08-24T07:01:27;7.13;;;4.50;;
19897;SDS011;10111;50.814;4.572;2023-08-24T07:03:53;7.63;;;4.53;;
19897;SDS011;10111;50.814;4.572;2023-08-24T07:06:19;6.03;;;3.77;;
19897;SDS011;10111;50.814;4.572;2023-08-24T07:08:45;5.67;;;5.03;;
19897;SDS011;10111;50.814;4.572;2023-08-24T07:11:10;6.00;;;4.73;;
19897;SDS011;10111;50.814;4.572;2023-08-24T07:13:39;5.33;;;3.40;;
19897;SDS011;10111;50.814;4.572;2023-08-24T07:16:04;5.73;;;4.00;;
19897;SDS011;10111;50.814;4.572;2023-08-24T07:18:30;5.43;;;3.53;;
19897;SDS011;10111;50.814;4.572;2023-08-24T07:20:56;7.03;;;4.07;;
19897;SDS011;10111;50.814;4.572;2023-08-24T07:23:21;4.93;;;3.60;;
19897;SDS011;10111;50.814;4.572;2023-08-24T07:25:47;12.20;;;4.83;;
19897;SDS011;10111;50.814;4.572;2023-08-24T07:28:13;9.53;;;4.80;;
19897;SDS011;10111;50.814;4.572;2023-08-24T07:30:39;5.83;;;3.73;;
19897;SDS011;10111;50.814;4.572;2023-08-24T07:33:04;5.47;;;4.17;;
19897;SDS011;10111;50.814;4.572;2023-08-24T07:35:30;6.30;;;3.60;;
19897;SDS011;10111;50.814;4.572;2023-08-24T07:37:57;6.73;;;4.03;;
19897;SDS011;10111;50.814;4.572;2023-08-24T07:40:22;5.53;;;3.40;;
19897;SDS011;10111;50.814;4.572;2023-08-24T07:42:49;6.13;;;3.73;;
19897;SDS011;10111;50.814;4.572;2023-08-24T07:45:18;4.37;;;3.40;;
19897;SDS011;10111;50.814;4.572;2023-08-24T07:47:44;4.80;;;3.97;;
19897;SDS011;10111;50.814;4.572;2023-08-24T07:50:10;7.37;;;3.73;;
19897;SDS011;10111;50.814;4.572;2023-08-24T07:52:37;7.63;;;3.57;;
19897;SDS011;10111;50.814;4.572;2023-08-24T07:55:03;6.83;;;3.83;;
19897;SDS011;10111;50.814;4.572;2023-08-24T07:57:31;6.13;;;3.70;;
19897;SDS011;10111;50.814;4.572;2023-08-24T08:00:01;5.53;;;4.83;;
19897;SDS011;10111;50.814;4.572;2023-08-24T08:02:27;5.20;;;4.03;;
19897;SDS011;10111;50.814;4.572;2023-08-24T08:04:56;8.63;;;4.10;;
19897;SDS011;10111;50.814;4.572;2023-08-24T08:07:28;5.07;;;3.30;;
19897;SDS011;10111;50.814;4.572;2023-08-24T08:09:54;4.17;;;3.47;;
19897;SDS011;10111;50.814;4.572;2023-08-24T08:12:19;5.33;;;4.20;;
19897;SDS011;10111;50.814;4.572;2023-08-24T08:14:45;6.80;;;4.00;;
19897;SDS011;10111;50.814;4.572;2023-08-24T08:17:11;5.20;;;3.90;;
19897;SDS011;10111;50.814;4.572;2023-08-24T08:19:37;5.97;;;3.37;;
19897;SDS011;10111;50.814;4.572;2023-08-24T08:22:13;4.70;;;3.67;;
19897;SDS011;10111;50.814;4.572;2023-08-24T08:24:39;5.80;;;4.60;;
19897;SDS011;10111;50.814;4.572;2023-08-24T08:27:04;6.70;;;5.57;;
19897;SDS011;10111;50.814;4.572;2023-08-24T08:29:30;4.70;;;3.63;;
19897;SDS011;10111;50.814;4.572;2023-08-24T08:31:56;7.27;;;4.00;;
19897;SDS011;10111;50.814;4.572;2023-08-24T08:34:21;6.80;;;3.83;;
19897;SDS011;10111;50.814;4.572;2023-08-24T08:36:47;4.90;;;3.73;;
19897;SDS011;10111;50.814;4.572;2023-08-24T08:39:13;6.23;;;3.50;;
19897;SDS011;10111;50.814;4.572;2023-08-24T08:41:42;5.97;;;3.83;;
19897;SDS011;10111;50.814;4.572;2023-08-24T08:44:10;6.97;;;4.03;;
19897;SDS011;10111;50.814;4.572;2023-08-24T08:46:39;4.27;;;3.33;;
19897;SDS011;10111;50.814;4.572;2023-08-24T08:49:06;6.57;;;3.73;;
19897;SDS011;10111;50.814;4.572;2023-08-24T08:51:35;3.97;;;3.27;;
19897;SDS011;10111;50.814;4.572;2023-08-24T08:54:01;7.20;;;4.10;;
19897;SDS011;10111;50.814;4.572;2023-08-24T08:56:28;5.37;;;3.20;;
19897;SDS011;10111;50.814;4.572;2023-08-24T08:58:55;3.93;;;3.30;;
19897;SDS011;10111;50.814;4.572;2023-08-24T09:01:24;4.67;;;4.10;;
19897;SDS011;10111;50.814;4.572;2023-08-24T09:03:50;9.53;;;3.70;;
19897;SDS011;10111;50.814;4.572;2023-08-24T09:06:17;8.37;;;4.13;;
19897;SDS011;10111;50.814;4.572;2023-08-24T09:08:43;6.60;;;3.50;;
19897;SDS011;10111;50.814;4.572;2023-08-24T09:11:09;9.07;;;4.47;;
19897;SDS011;10111;50.814;4.572;2023-08-24T09:13:35;10.13;;;4.50;;
19897;SDS011;10111;50.814;4.572;2023-08-24T09:16:07;5.03;;;3.80;;
19897;SDS011;10111;50.814;4.572;2023-08-24T09:18:37;7.07;;;4.00;;
19897;SDS011;10111;50.814;4.572;2023-08-24T09:21:10;8.07;;;3.83;;
19897;SDS011;10111;50.814;4.572;2023-08-24T09:23:38;5.77;;;4.07;;
19897;SDS011;10111;50.814;4.572;2023-08-24T09:26:09;4.87;;;4.30;;
19897;SDS011;10111;50.814;4.572;2023-08-24T09:28:35;5.93;;;3.63;;
19897;SDS011;10111;50.814;4.572;2023-08-24T09:31:01;6.07;;;4.20;;
19897;SDS011;10111;50.814;4.572;2023-08-24T09:33:28;6.13;;;3.10;;
19897;SDS011;10111;50.814;4.572;2023-08-24T09:35:55;4.43;;;3.57;;
19897;SDS011;10111;50.814;4.572;2023-08-24T09:38:26;5.93;;;3.77;;
19897;SDS011;10111;50.814;4.572;2023-08-24T09:40:55;6.30;;;3.80;;
19897;SDS011;10111;50.814;4.572;2023-08-24T09:43:21;5.37;;;3.53;;
19897;SDS011;10111;50.814;4.572;2023-08-24T09:45:48;6.40;;;3.60;;
19897;SDS011;10111;50.814;4.572;2023-08-24T09:48:15;7.17;;;4.03;;
19897;SDS011;10111;50.814;4.572;2023-08-24T09:50:42;13.83;;;5.90;;
19897;SDS011;10111;50.814;4.572;2023-08-24T09:53:21;9.67;;;4.63;;
19897;SDS011;10111;50.814;4.572;2023-08-24T09:55:55;12.30;;;6.67;;
19897;SDS011;10111;50.814;4.572;2023-08-24T09:58:26;8.73;;;4.93;;
19897;SDS011;10111;50.814;4.572;2023-08-24T10:00:52;6.57;;;5.07;;
19897;SDS011;10111;50.814;4.572;2023-08-24T10:03:19;5.77;;;4.77;;
19897;SDS011;10111;50.814;4.572;2023-08-24T10:05:53;5.50;;;4.83;;
19897;SDS011;10111;50.814;4.572;2023-08-24T10:08:29;10.37;;;5.37;;
19897;SDS011;10111;50.814;4.572;2023-08-24T10:11:01;11.70;;;5.97;;
19897;SDS011;10111;50.814;4.572;2023-08-24T10:16:09;6.97;;;5.73;;
19897;SDS011;10111;50.814;4.572;2023-08-24T10:18:37;13.70;;;6.60;;
19897;SDS011;10111;50.814;4.572;2023-08-24T10:21:04;9.60;;;6.53;;
19897;SDS011;10111;50.814;4.572;2023-08-24T10:23:30;10.10;;;6.00;;
19897;SDS011;10111;50.814;4.572;2023-08-24T10:25:58;9.07;;;6.23;;
19897;SDS011;10111;50.814;4.572;2023-08-24T10:28:27;11.13;;;6.23;;
19897;SDS011;10111;50.814;4.572;2023-08-24T10:30:53;10.63;;;6.33;;
19897;SDS011;10111;50.814;4.572;2023-08-24T10:33:20;7.93;;;5.50;;
19897;SDS011;10111;50.814;4.572;2023-08-24T10:35:47;6.30;;;5.00;;
19897;SDS011;10111;50.814;4.572;2023-08-24T10:38:26;10.13;;;5.60;;
19897;SDS011;10111;50.814;4.572;2023-08-24T10:40:53;7.87;;;6.23;;
19897;SDS011;10111;50.814;4.572;2023-08-24T10:43:19;13.33;;;7.40;;
19897;SDS011;10111;50.814;4.572;2023-08-24T10:46:01;10.17;;;7.03;;
19897;SDS011;10111;50.814;4.572;2023-08-24T10:49:15;7.43;;;6.53;;
19897;SDS011;10111;50.814;4.572;2023-08-24T10:53:59;9.47;;;6.70;;
19897;SDS011;10111;50.814;4.572;2023-08-24T10:59:09;8.23;;;7.03;;
19897;SDS011;10111;50.814;4.572;2023-08-24T11:01:38;12.67;;;7.60;;
19897;SDS011;10111;50.814;4.572;2023-08-24T11:04:05;8.17;;;6.60;;
19897;SDS011;10111;50.814;4.572;2023-08-24T11:06:34;8.37;;;6.43;;
19897;SDS011;10111;50.814;4.572;2023-08-24T11:09:16;9.20;;;5.70;;
19897;SDS011;10111;50.814;4.572;2023-08-24T11:11:42;8.77;;;7.27;;
19897;SDS011;10111;50.814;4.572;2023-08-24T11:14:21;9.90;;;7.67;;
19897;SDS011;10111;50.814;4.572;2023-08-24T11:16:48;7.83;;;6.27;;
19897;SDS011;10111;50.814;4.572;2023-08-24T11:19:14;7.17;;;6.50;;
19897;SDS011;10111;50.814;4.572;2023-08-24T11:21:44;8.03;;;6.67;;
19897;SDS011;10111;50.814;4.572;2023-08-24T11:24:14;8.13;;;6.70;;
19897;SDS011;10111;50.814;4.572;2023-08-24T11:26:41;11.17;;;7.53;;
19897;SDS011;10111;50.814;4.572;2023-08-24T11:29:08;10.67;;;7.33;;
19897;SDS011;10111;50.814;4.572;2023-08-24T11:31:34;10.30;;;7.27;;
19897;SDS011;10111;50.814;4.572;2023-08-24T11:34:01;7.43;;;6.73;;
19897;SDS011;10111;50.814;4.572;2023-08-24T11:36:28;6.57;;;5.83;;
19897;SDS011;10111;50.814;4.572;2023-08-24T11:38:56;11.43;;;7.30;;
19897;SDS011;10111;50.814;4.572;2023-08-24T11:41:25;8.73;;;6.07;;
19897;SDS011;10111;50.814;4.572;2023-08-24T11:43:58;7.27;;;6.40;;
19897;SDS011;10111;50.814;4.572;2023-08-24T11:46:24;6.23;;;5.63;;
19897;SDS011;10111;50.814;4.572;2023-08-24T11:48:50;9.17;;;6.53;;
19897;SDS011;10111;50.814;4.572;2023-08-24T11:51:16;6.50;;;5.73;;
19897;SDS011;10111;50.814;4.572;2023-08-24T11:53:43;6.80;;;5.53;;
19897;SDS011;10111;50.814;4.572;2023-08-24T11:56:10;5.97;;;5.47;;
19897;SDS011;10111;50.814;4.572;2023-08-24T11:58:41;7.70;;;5.40;;
19897;SDS011;10111;50.814;4.572;2023-08-24T12:01:10;6.17;;;5.10;;
19897;SDS011;10111;50.814;4.572;2023-08-24T12:03:37;6.30;;;5.43;;
19897;SDS011;10111;50.814;4.572;2023-08-24T12:06:13;6.10;;;5.50;;
19897;SDS011;10111;50.814;4.572;2023-08-24T12:08:41;7.30;;;5.27;;
19897;SDS011;10111;50.814;4.572;2023-08-24T12:11:15;8.17;;;6.00;;
19897;SDS011;10111;50.814;4.572;2023-08-24T12:13:43;7.90;;;5.80;;
19897;SDS011;10111;50.814;4.572;2023-08-24T12:16:15;6.73;;;5.77;;
19897;SDS011;10111;50.814;4.572;2023-08-24T12:18:49;6.63;;;5.73;;
19897;SDS011;10111;50.814;4.572;2023-08-24T12:21:19;10.10;;;5.93;;
19897;SDS011;10111;50.814;4.572;2023-08-24T12:24:01;9.07;;;5.93;;
19897;SDS011;10111;50.814;4.572;2023-08-24T12:26:34;6.90;;;6.20;;
19897;SDS011;10111;50.814;4.572;2023-08-24T12:29:04;8.27;;;6.77;;
19897;SDS011;10111;50.814;4.572;2023-08-24T12:31:31;11.57;;;6.73;;
19897;SDS011;10111;50.814;4.572;2023-08-24T12:34:07;6.10;;;5.53;;
19897;SDS011;10111;50.814;4.572;2023-08-24T12:36:34;7.00;;;5.97;;
19897;SDS011;10111;50.814;4.572;2023-08-24T12:39:02;6.53;;;5.93;;
19897;SDS011;10111;50.814;4.572;2023-08-24T12:41:32;8.37;;;6.20;;
19897;SDS011;10111;50.814;4.572;2023-08-24T12:43:57;9.20;;;6.87;;
19897;SDS011;10111;50.814;4.572;2023-08-24T12:46:24;6.07;;;5.43;;
19897;SDS011;10111;50.814;4.572;2023-08-24T12:48:50;6.33;;;5.73;;
19897;SDS011;10111;50.814;4.572;2023-08-24T12:51:16;7.00;;;5.47;;
19897;SDS011;10111;50.814;4.572;2023-08-24T12:53:42;9.13;;;5.57;;
19897;SDS011;10111;50.814;4.572;2023-08-24T12:56:08;9.30;;;6.00;;
19897;SDS011;10111;50.814;4.572;2023-08-24T12:58:34;5.83;;;4.83;;
19897;SDS011;10111;50.814;4.572;2023-08-24T13:01:00;8.73;;;5.37;;
19897;SDS011;10111;50.814;4.572;2023-08-24T13:03:25;9.30;;;5.47;;
19897;SDS011;10111;50.814;4.572;2023-08-24T13:05:51;5.40;;;4.53;;
19897;SDS011;10111;50.814;4.572;2023-08-24T13:08:17;9.07;;;5.97;;
19897;SDS011;10111;50.814;4.572;2023-08-24T13:10:42;5.67;;;4.70;;
19897;SDS011;10111;50.814;4.572;2023-08-24T13:13:08;6.10;;;4.03;;
19897;SDS011;10111;50.814;4.572;2023-08-24T13:15:34;6.07;;;4.60;;
19897;SDS011;10111;50.814;4.572;2023-08-24T13:17:59;6.77;;;4.80;;
19897;SDS011;10111;50.814;4.572;2023-08-24T13:20:25;4.00;;;3.63;;
19897;SDS011;10111;50.814;4.572;2023-08-24T13:22:52;4.60;;;4.10;;
19897;SDS011;10111;50.814;4.572;2023-08-24T13:25:18;6.30;;;4.20;;
19897;SDS011;10111;50.814;4.572;2023-08-24T13:27:43;7.47;;;4.00;;
19897;SDS011;10111;50.814;4.572;2023-08-24T13:30:09;4.53;;;3.63;;
19897;SDS011;10111;50.814;4.572;2023-08-24T13:32:35;6.83;;;3.43;;
19897;SDS011;10111;50.814;4.572;2023-08-24T13:35:01;3.37;;;2.87;;
19897;SDS011;10111;50.814;4.572;2023-08-24T13:37:27;5.67;;;3.70;;
19897;SDS011;10111;50.814;4.572;2023-08-24T13:39:53;4.60;;;3.37;;
19897;SDS011;10111;50.814;4.572;2023-08-24T13:42:19;6.87;;;3.70;;
19897;SDS011;10111;50.814;4.572;2023-08-24T13:44:45;5.13;;;3.50;;
19897;SDS011;10111;50.814;4.572;2023-08-24T13:47:11;3.27;;;2.97;;
19897;SDS011;10111;50.814;4.572;2023-08-24T13:49:37;4.73;;;3.27;;
19897;SDS011;10111;50.814;4.572;2023-08-24T13:52:03;5.47;;;3.33;;
19897;SDS011;10111;50.814;4.572;2023-08-24T13:54:29;5.10;;;3.13;;
19897;SDS011;10111;50.814;4.572;2023-08-24T13:56:55;5.33;;;3.07;;
19897;SDS011;10111;50.814;4.572;2023-08-24T13:59:21;4.00;;;3.03;;
19897;SDS011;10111;50.814;4.572;2023-08-24T14:01:47;8.07;;;3.60;;
19897;SDS011;10111;50.814;4.572;2023-08-24T14:04:13;5.30;;;3.50;;
19897;SDS011;10111;50.814;4.572;2023-08-24T14:06:39;4.07;;;3.30;;
19897;SDS011;10111;50.814;4.572;2023-08-24T14:09:04;5.20;;;4.03;;
19897;SDS011;10111;50.814;4.572;2023-08-24T14:11:31;4.30;;;2.90;;
19897;SDS011;10111;50.814;4.572;2023-08-24T14:13:57;5.40;;;2.80;;
19897;SDS011;10111;50.814;4.572;2023-08-24T14:16:23;5.23;;;2.67;;
19897;SDS011;10111;50.814;4.572;2023-08-24T14:18:49;5.43;;;2.80;;
19897;SDS011;10111;50.814;4.572;2023-08-24T14:21:17;3.77;;;2.73;;
19897;SDS011;10111;50.814;4.572;2023-08-24T14:23:43;6.00;;;2.63;;
19897;SDS011;10111;50.814;4.572;2023-08-24T14:26:09;8.40;;;2.67;;
19897;SDS011;10111;50.814;4.572;2023-08-24T14:28:50;5.60;;;2.80;;
19897;SDS011;10111;50.814;4.572;2023-08-24T14:31:27;4.47;;;3.00;;
19897;SDS011;10111;50.814;4.572;2023-08-24T14:33:54;3.03;;;2.70;;
19897;SDS011;10111;50.814;4.572;2023-08-24T14:36:20;6.53;;;2.20;;
19897;SDS011;10111;50.814;4.572;2023-08-24T14:38:46;3.00;;;2.60;;
19897;SDS011;10111;50.814;4.572;2023-08-24T14:41:13;4.53;;;2.40;;
19897;SDS011;10111;50.814;4.572;2023-08-24T14:43:39;4.37;;;2.30;;
19897;SDS011;10111;50.814;4.572;2023-08-24T14:46:05;4.50;;;2.40;;
19897;SDS011;10111;50.814;4.572;2023-08-24T14:48:32;5.20;;;2.53;;
19897;SDS011;10111;50.814;4.572;2023-08-24T14:50:58;4.10;;;2.40;;
19897;SDS011;10111;50.814;4.572;2023-08-24T14:53:24;2.40;;;2.10;;